createdAt,value
2023-07-03T00:00:29.478Z,21.09
2023-07-03T00:02:57.691Z,21.12
2023-07-03T00:05:27.688Z,21.16
2023-07-03T00:08:01.673Z,21.18
2023-07-03T00:10:30.966Z,20.56
2023-07-03T00:12:59.041Z,20.51
2023-07-03T00:15:27.463Z,21.10
2023-07-03T00:17:55.584Z,21.70
2023-07-03T00:20:30.213Z,21.64
2023-07-03T00:23:05.743Z,21.58
2023-07-03T00:25:33.959Z,21.59
2023-07-03T00:28:02.197Z,21.48
2023-07-03T00:30:31.450Z,21.69
2023-07-03T00:33:04.847Z,21.73
2023-07-03T00:35:33.960Z,21.73
2023-07-03T00:38:03.466Z,21.69
2023-07-03T00:40:31.565Z,21.59
2023-07-03T00:43:00.164Z,20.88
2023-07-03T00:45:28.488Z,21.48
2023-07-03T00:47:57.006Z,20.48
2023-07-03T00:50:25.583Z,19.74
2023-07-03T00:53:05.190Z,19.60
2023-07-03T00:55:38.797Z,19.62
2023-07-03T00:58:12.042Z,19.58
2023-07-03T01:00:48.956Z,18.91
2023-07-03T01:03:25.756Z,18.54
2023-07-03T01:05:56.940Z,18.47
2023-07-03T01:08:27.299Z,18.65
2023-07-03T01:10:57.918Z,19.59
2023-07-03T01:13:34.278Z,18.93
2023-07-03T01:16:08.036Z,19.09
2023-07-03T01:18:40.474Z,19.36
2023-07-03T01:21:17.522Z,19.23
2023-07-03T01:23:52.448Z,19.38
2023-07-03T01:26:23.851Z,19.72
2023-07-03T01:28:55.981Z,20.04
2023-07-03T01:31:26.927Z,20.83
2023-07-03T01:33:57.147Z,20.81
2023-07-03T01:36:27.189Z,20.52
2023-07-03T01:38:56.557Z,20.79
2023-07-03T01:41:26.638Z,20.48
2023-07-03T01:43:55.614Z,20.45
2023-07-03T01:46:24.789Z,20.29
2023-07-03T01:48:53.057Z,20.52
2023-07-03T01:51:27.825Z,20.48
2023-07-03T01:54:08.938Z,20.80
2023-07-03T01:56:43.716Z,20.73
2023-07-03T01:59:14.141Z,20.94
2023-07-03T02:01:57.550Z,20.83
2023-07-03T02:04:30.073Z,20.72
2023-07-03T02:07:01.203Z,20.32
2023-07-03T02:09:30.022Z,20.67
2023-07-03T02:12:01.796Z,20.84
2023-07-03T02:14:31.868Z,20.33
2023-07-03T02:17:00.146Z,19.74
2023-07-03T02:19:30.248Z,19.32
2023-07-03T02:21:58.754Z,19.46
2023-07-03T02:24:27.286Z,19.09
2023-07-03T02:26:56.168Z,19.16
2023-07-03T02:29:26.052Z,18.69
2023-07-03T02:31:54.148Z,18.07
2023-07-03T02:34:23.195Z,18.48
2023-07-03T02:36:51.585Z,18.57
2023-07-03T02:39:21.018Z,19.37
2023-07-03T02:41:51.180Z,19.23
2023-07-03T02:44:19.330Z,18.61
2023-07-03T02:46:48.898Z,18.69
2023-07-03T02:49:18.526Z,18.04
2023-07-03T02:51:46.809Z,18.21
2023-07-03T02:54:15.045Z,18.54
2023-07-03T02:56:43.671Z,18.66
2023-07-03T02:59:12.890Z,18.68
2023-07-03T03:01:41.088Z,19.29
2023-07-03T03:04:10.740Z,18.84
2023-07-03T03:06:39.136Z,19.11
2023-07-03T03:09:07.372Z,19.06
2023-07-03T03:11:37.062Z,19.15
2023-07-03T03:14:06.352Z,19.24
2023-07-03T03:16:36.185Z,18.85
2023-07-03T03:19:04.393Z,19.12
2023-07-03T03:21:33.963Z,19.64
2023-07-03T03:24:02.283Z,18.91
2023-07-03T03:26:30.392Z,18.66
2023-07-03T03:28:58.615Z,17.90
2023-07-03T03:31:28.076Z,17.47
2023-07-03T03:34:01.182Z,17.53
2023-07-03T03:36:29.363Z,17.44
2023-07-03T03:39:05.959Z,17.55
2023-07-03T03:41:36.595Z,17.81
2023-07-03T03:44:05.575Z,17.53
2023-07-03T03:46:33.781Z,17.46
2023-07-03T03:49:01.945Z,17.69
2023-07-03T03:51:30.180Z,18.02
2023-07-03T03:54:04.552Z,18.41
2023-07-03T03:56:34.344Z,18.99
2023-07-03T03:59:04.526Z,19.63
2023-07-03T04:01:38.948Z,20.28
2023-07-03T04:04:07.750Z,20.51
2023-07-03T04:06:36.697Z,20.54
2023-07-03T04:09:06.585Z,20.57
2023-07-03T04:11:34.704Z,20.88
2023-07-03T04:14:03.116Z,20.74
2023-07-03T04:16:36.838Z,20.95
2023-07-03T04:19:09.347Z,20.99
2023-07-03T04:21:42.784Z,21.03
2023-07-03T04:24:13.529Z,21.32
2023-07-03T04:26:42.761Z,21.06
2023-07-03T04:29:10.883Z,21.18
2023-07-03T04:31:43.686Z,21.28
2023-07-03T04:34:16.894Z,21.57
2023-07-03T04:36:45.741Z,21.54
2023-07-03T04:39:15.129Z,21.64
2023-07-03T04:41:43.259Z,20.93
2023-07-03T04:44:13.676Z,20.84
2023-07-03T04:46:49.160Z,20.69
2023-07-03T04:49:28.936Z,20.53
2023-07-03T04:52:07.083Z,21.08
2023-07-03T04:54:48.864Z,21.51
2023-07-03T04:57:17.042Z,21.48
2023-07-03T04:59:52.105Z,21.61
2023-07-03T05:02:26.481Z,21.74
2023-07-03T05:04:58.829Z,21.29
2023-07-03T05:07:27.046Z,21.79
2023-07-03T05:10:05.364Z,21.97
2023-07-03T05:12:39.167Z,21.55
2023-07-03T05:15:10.321Z,21.67
2023-07-03T05:17:40.060Z,21.90
2023-07-03T05:20:11.368Z,21.88
2023-07-03T05:22:39.701Z,22.29
2023-07-03T05:25:11.748Z,22.61
2023-07-03T05:27:40.421Z,22.23
2023-07-03T05:30:10.305Z,21.65
2023-07-03T05:32:43.160Z,21.69
2023-07-03T05:35:12.852Z,22.37
2023-07-03T05:37:41.040Z,22.45
2023-07-03T05:40:11.730Z,22.94
2023-07-03T05:42:39.800Z,22.74
2023-07-03T05:45:10.183Z,22.60
2023-07-03T05:47:39.349Z,22.52
2023-07-03T05:50:08.854Z,22.36
2023-07-03T05:52:40.982Z,22.68
2023-07-03T05:55:10.901Z,22.73
2023-07-03T05:57:39.393Z,22.73
2023-07-03T06:00:14.461Z,22.51
2023-07-03T06:02:56.704Z,22.86
2023-07-03T06:05:26.086Z,23.44
2023-07-03T06:07:54.211Z,23.45
2023-07-03T06:10:24.869Z,23.71
2023-07-03T06:12:57.187Z,23.79
2023-07-03T06:15:26.996Z,24.23
2023-07-03T06:17:56.791Z,24.20
2023-07-03T06:20:25.660Z,24.43
2023-07-03T06:22:53.807Z,24.52
2023-07-03T06:25:23.930Z,24.31
2023-07-03T06:27:56.966Z,24.32
2023-07-03T06:30:26.311Z,24.39
2023-07-03T06:32:54.580Z,24.34
2023-07-03T06:35:22.761Z,24.46
2023-07-03T06:37:58.430Z,24.61
2023-07-03T06:40:29.273Z,24.58
2023-07-03T06:42:57.601Z,24.92
2023-07-03T06:45:29.407Z,25.30
2023-07-03T06:47:58.291Z,25.46
2023-07-03T06:50:26.477Z,24.92
2023-07-03T06:52:56.829Z,25.04
2023-07-03T06:55:26.022Z,25.43
2023-07-03T06:57:55.435Z,24.93
2023-07-03T07:00:23.859Z,24.99
2023-07-03T07:02:52.050Z,25.55
2023-07-03T07:05:27.112Z,25.34
2023-07-03T07:07:56.215Z,25.80
2023-07-03T07:10:25.580Z,24.85
2023-07-03T07:12:55.043Z,25.52
2023-07-03T07:15:23.187Z,25.21
2023-07-03T07:17:52.625Z,25.59
2023-07-03T07:20:21.093Z,25.72
2023-07-03T07:22:50.438Z,25.95
2023-07-03T07:25:18.577Z,25.32
2023-07-03T07:27:47.997Z,25.21
2023-07-03T07:30:18.560Z,25.76
2023-07-03T07:32:49.038Z,25.52
2023-07-03T07:35:17.689Z,25.26
2023-07-03T07:37:49.985Z,25.22
2023-07-03T07:40:19.183Z,24.39
2023-07-03T07:42:47.417Z,25.42
2023-07-03T07:45:15.591Z,24.74
2023-07-03T07:47:45.164Z,25.29
2023-07-03T07:50:14.068Z,25.99
2023-07-03T07:52:42.202Z,26.03
2023-07-03T07:55:15.494Z,26.11
2023-07-03T07:57:45.966Z,24.78
2023-07-03T08:00:15.436Z,25.23
2023-07-03T08:02:46.109Z,24.67
2023-07-03T08:05:14.584Z,24.84
2023-07-03T08:07:42.750Z,25.52
2023-07-03T08:10:16.182Z,25.39
2023-07-03T08:12:51.024Z,25.32
2023-07-03T08:15:20.658Z,25.99
2023-07-03T08:17:51.662Z,26.15
2023-07-03T08:20:20.192Z,25.48
2023-07-03T08:22:48.396Z,26.06
2023-07-03T08:25:17.344Z,25.76
2023-07-03T08:27:47.596Z,25.99
2023-07-03T08:30:17.367Z,24.83
2023-07-03T08:32:56.408Z,25.28
2023-07-03T08:37:56.754Z,25.49
2023-07-03T08:40:25.514Z,24.10
2023-07-03T08:43:00.579Z,24.05
2023-07-03T08:45:37.495Z,23.82
2023-07-03T08:48:12.860Z,24.50
2023-07-03T08:50:46.176Z,25.05
2023-07-03T08:53:19.502Z,25.29
2023-07-03T08:55:52.614Z,25.46
2023-07-03T08:58:22.488Z,25.98
2023-07-03T09:01:06.942Z,25.19
2023-07-03T09:03:57.982Z,25.10
2023-07-03T09:06:36.380Z,24.18
2023-07-03T09:09:12.905Z,24.35
2023-07-03T09:11:48.124Z,24.92
2023-07-03T09:14:25.124Z,25.00
2023-07-03T09:16:53.907Z,25.46
2023-07-03T09:19:27.293Z,25.58
2023-07-03T09:22:00.000Z,26.08
2023-07-03T09:24:31.178Z,26.24
2023-07-03T09:27:06.111Z,24.50
2023-07-03T09:29:37.667Z,24.84
2023-07-03T09:32:06.897Z,25.81
2023-07-03T09:35:09.789Z,25.70
2023-07-03T09:37:39.903Z,25.90
2023-07-03T09:40:11.384Z,25.86
2023-07-03T09:42:39.730Z,25.35
2023-07-03T09:45:16.234Z,26.19
2023-07-03T09:47:49.910Z,25.30
2023-07-03T09:50:26.727Z,23.80
2023-07-03T09:53:07.602Z,24.29
2023-07-03T09:55:42.213Z,24.83
2023-07-03T09:58:16.933Z,24.90
2023-07-03T10:00:48.958Z,24.28
2023-07-03T10:08:31.628Z,24.18
2023-07-03T10:13:54.542Z,25.11
2023-07-03T10:16:26.219Z,24.47
2023-07-03T10:19:00.262Z,24.78
2023-07-03T10:21:30.769Z,23.85
2023-07-03T10:24:00.715Z,24.35
2023-07-03T10:26:34.170Z,25.28
2023-07-03T10:29:08.262Z,24.64
2023-07-03T10:31:50.826Z,24.67
2023-07-03T10:34:26.774Z,25.05
2023-07-03T10:37:02.900Z,25.22
2023-07-03T10:39:38.761Z,24.88
2023-07-03T10:42:13.319Z,25.39
2023-07-03T10:44:44.338Z,25.01
2023-07-03T10:47:21.329Z,25.59
2023-07-03T10:49:49.658Z,25.25
2023-07-03T10:52:29.090Z,24.80
2023-07-03T10:55:07.176Z,25.52
2023-07-03T10:57:51.546Z,26.08
2023-07-03T11:00:25.044Z,24.67
2023-07-03T11:03:02.661Z,25.24
2023-07-03T11:05:36.645Z,24.60
2023-07-03T11:08:20.087Z,25.47
2023-07-03T11:11:00.852Z,26.53
2023-07-03T11:13:44.429Z,26.50
2023-07-03T11:16:15.623Z,26.78
2023-07-03T11:24:22.720Z,26.55
2023-07-03T11:29:30.354Z,25.90
2023-07-03T11:31:59.602Z,26.11
2023-07-03T11:40:34.593Z,25.64
2023-07-03T11:46:06.513Z,25.89
2023-07-03T11:48:42.619Z,25.73
2023-07-03T11:51:13.360Z,25.82
2023-07-03T11:53:45.653Z,26.30
2023-07-03T11:56:37.980Z,26.58
2023-07-03T11:59:07.823Z,28.15
2023-07-03T12:01:38.108Z,26.87
2023-07-03T12:04:09.188Z,25.82
2023-07-03T12:06:49.085Z,26.56
2023-07-03T12:09:35.411Z,26.61
2023-07-03T12:12:17.499Z,27.02
2023-07-03T12:14:57.845Z,26.70
2023-07-03T12:17:28.942Z,27.20
2023-07-03T12:20:05.674Z,27.78
2023-07-03T12:22:39.609Z,27.47
2023-07-03T12:25:10.423Z,25.99
2023-07-03T12:27:41.914Z,26.68
2023-07-03T12:30:13.543Z,25.91
2023-07-03T12:32:41.805Z,27.08
2023-07-03T12:35:15.365Z,27.53
2023-07-03T12:37:45.955Z,28.44
2023-07-03T12:40:15.667Z,27.77
2023-07-03T12:42:47.568Z,26.82
2023-07-03T12:45:20.255Z,26.94
2023-07-03T12:48:02.404Z,26.81
2023-07-03T12:50:30.649Z,27.60
2023-07-03T12:52:59.647Z,27.05
2023-07-03T12:55:36.205Z,27.63
2023-07-03T12:58:08.101Z,27.68
2023-07-03T13:00:37.843Z,28.22
2023-07-03T13:03:07.816Z,27.36
2023-07-03T13:05:38.202Z,28.28
2023-07-03T13:08:13.348Z,28.56
2023-07-03T13:10:41.514Z,28.32
2023-07-03T13:13:13.096Z,28.91
2023-07-03T13:15:43.390Z,28.23
2023-07-03T13:18:17.446Z,27.28
2023-07-03T13:20:57.454Z,29.58
2023-07-03T13:23:30.379Z,28.46
2023-07-03T13:25:59.378Z,28.74
2023-07-03T13:28:32.007Z,28.57
2023-07-03T13:31:08.140Z,27.08
2023-07-03T13:33:37.394Z,27.99
2023-07-03T13:36:23.005Z,28.93
2023-07-03T13:39:01.804Z,28.07
2023-07-03T13:41:30.105Z,28.82
2023-07-03T13:44:00.166Z,29.78
2023-07-03T13:46:28.902Z,30.30
2023-07-03T13:48:57.074Z,28.68
2023-07-03T13:51:25.133Z,28.31
2023-07-03T13:54:03.207Z,27.85
2023-07-03T13:56:39.053Z,28.53
2023-07-03T13:59:10.668Z,28.76
2023-07-03T14:01:40.164Z,29.28
2023-07-03T14:04:09.536Z,27.96
2023-07-03T14:06:37.791Z,27.65
2023-07-03T14:09:07.113Z,27.42
2023-07-03T14:11:35.364Z,28.56
2023-07-03T14:14:03.644Z,28.08
2023-07-03T14:16:33.218Z,28.95
2023-07-03T14:19:03.725Z,28.71
2023-07-03T14:21:34.895Z,26.73
2023-07-03T14:24:03.109Z,28.50
2023-07-03T14:26:31.216Z,28.32
2023-07-03T14:28:59.320Z,28.95
2023-07-03T14:31:27.534Z,28.35
2023-07-03T14:33:57.142Z,28.31
2023-07-03T14:36:25.362Z,26.90
2023-07-03T14:38:53.452Z,28.33
2023-07-03T14:41:21.601Z,27.06
2023-07-03T14:43:50.586Z,28.06
2023-07-03T14:46:18.832Z,28.48
2023-07-03T14:48:46.982Z,27.71
2023-07-03T14:51:16.435Z,27.92
2023-07-03T14:53:44.595Z,28.52
2023-07-03T14:56:12.692Z,28.62
2023-07-03T14:58:40.905Z,29.64
2023-07-03T15:01:09.043Z,27.56
2023-07-03T15:03:37.464Z,28.10
2023-07-03T15:06:08.100Z,29.68
2023-07-03T15:08:38.319Z,29.47
2023-07-03T15:11:06.502Z,29.28
2023-07-03T15:13:34.657Z,29.94
2023-07-03T15:16:02.822Z,29.02
2023-07-03T15:18:31.003Z,29.72
2023-07-03T15:20:59.355Z,30.06
2023-07-03T15:23:27.518Z,30.03
2023-07-03T15:26:07.112Z,29.98
2023-07-03T15:28:35.421Z,29.50
2023-07-03T15:31:04.284Z,28.71
2023-07-03T15:33:32.403Z,29.15
2023-07-03T15:36:01.552Z,29.49
2023-07-03T15:38:29.752Z,30.15
2023-07-03T15:41:00.753Z,29.17
2023-07-03T15:43:29.986Z,28.43
2023-07-03T15:46:05.819Z,28.18
2023-07-03T15:48:34.743Z,28.50
2023-07-03T15:51:03.077Z,29.13
2023-07-03T15:53:32.206Z,29.00
2023-07-03T15:56:04.156Z,28.67
2023-07-03T15:58:34.735Z,27.85
2023-07-03T16:01:06.559Z,27.56
2023-07-03T16:03:37.500Z,27.39
2023-07-03T16:06:07.505Z,27.53
2023-07-03T16:08:37.828Z,27.46
2023-07-03T16:11:08.057Z,27.57
2023-07-03T16:13:37.438Z,26.68
2023-07-03T16:16:06.250Z,27.69
2023-07-03T16:18:34.890Z,27.72
2023-07-03T16:21:04.405Z,28.04
2023-07-03T16:23:33.947Z,28.16
2023-07-03T16:26:06.515Z,29.12
2023-07-03T16:28:38.812Z,27.66
2023-07-03T16:31:08.259Z,28.44
2023-07-03T16:33:38.993Z,28.22
2023-07-03T16:36:09.069Z,28.68
2023-07-03T16:38:37.528Z,28.28
2023-07-03T16:41:10.379Z,28.34
2023-07-03T16:43:42.179Z,28.76
2023-07-03T16:46:12.902Z,29.07
2023-07-03T16:48:41.460Z,28.71
2023-07-03T16:51:11.247Z,28.12
2023-07-03T16:53:41.743Z,28.20
2023-07-03T16:56:12.220Z,27.70
2023-07-03T16:58:43.343Z,28.83
2023-07-03T17:01:13.358Z,28.39
2023-07-03T17:03:42.011Z,27.71
2023-07-03T17:06:14.665Z,28.27
2023-07-03T17:08:42.775Z,29.47
2023-07-03T17:11:12.347Z,29.88
2023-07-03T17:13:42.285Z,29.55
2023-07-03T17:16:10.590Z,28.09
2023-07-03T17:18:38.815Z,28.70
2023-07-03T17:21:06.968Z,28.44
2023-07-03T17:23:35.763Z,28.06
2023-07-03T17:26:04.308Z,28.36
2023-07-03T17:28:32.615Z,28.26
2023-07-03T17:31:04.560Z,28.26
2023-07-03T17:33:33.049Z,27.86
2023-07-03T17:36:02.717Z,28.37
2023-07-03T17:38:31.592Z,28.76
2023-07-03T17:40:59.630Z,29.00
2023-07-03T17:43:27.715Z,28.78
2023-07-03T17:45:56.027Z,29.35
2023-07-03T17:48:25.792Z,28.96
2023-07-03T17:50:53.957Z,29.67
2023-07-03T17:53:24.365Z,29.51
2023-07-03T17:55:52.717Z,30.28
2023-07-03T17:58:22.971Z,29.96
2023-07-03T18:00:53.431Z,30.70
2023-07-03T18:03:23.540Z,30.73
2023-07-03T18:05:56.374Z,30.60
2023-07-03T18:08:25.303Z,30.87
2023-07-03T18:10:53.424Z,31.09
2023-07-03T18:13:21.685Z,31.24
2023-07-03T18:15:50.510Z,31.18
2023-07-03T18:18:20.846Z,31.08
2023-07-03T18:20:49.491Z,31.12
2023-07-03T18:23:19.252Z,30.56
2023-07-03T18:25:48.588Z,29.96
2023-07-03T18:28:18.755Z,29.73
2023-07-03T18:30:47.712Z,28.83
2023-07-03T18:33:15.935Z,28.76
2023-07-03T18:35:44.389Z,28.15
2023-07-03T18:38:12.515Z,28.87
2023-07-03T18:40:42.116Z,29.41
2023-07-03T18:43:10.264Z,29.36
2023-07-03T18:45:38.539Z,29.53
2023-07-03T18:48:06.758Z,29.56
2023-07-03T18:50:34.978Z,29.24
2023-07-03T18:53:03.177Z,29.36
2023-07-03T18:55:31.551Z,29.30
2023-07-03T18:58:01.066Z,29.26
2023-07-03T19:00:29.217Z,29.26
2023-07-03T19:02:57.362Z,29.15
2023-07-03T19:05:25.521Z,29.03
2023-07-03T19:07:53.602Z,28.95
2023-07-03T19:10:21.897Z,27.24
2023-07-03T19:12:50.064Z,27.56
2023-07-03T19:15:19.561Z,28.02
2023-07-03T19:17:47.789Z,27.93
2023-07-03T19:20:19.276Z,27.95
2023-07-03T19:22:47.816Z,27.80
2023-07-03T19:25:15.891Z,28.06
2023-07-03T19:27:44.364Z,27.76
2023-07-03T19:30:14.306Z,27.74
2023-07-03T19:32:45.500Z,27.55
2023-07-03T19:35:14.289Z,27.57
2023-07-03T19:37:42.850Z,27.31
2023-07-03T19:40:11.383Z,27.43
2023-07-03T19:42:39.474Z,27.51
2023-07-03T19:45:09.093Z,27.43
2023-07-03T19:47:37.898Z,27.31
2023-07-03T19:50:11.678Z,27.28
2023-07-03T19:52:40.042Z,27.25
2023-07-03T19:55:08.527Z,27.18
2023-07-03T19:57:36.887Z,27.07
2023-07-03T20:00:06.387Z,27.01
2023-07-03T20:02:35.966Z,26.86
2023-07-03T20:05:04.458Z,26.75
2023-07-03T20:07:36.103Z,26.74
2023-07-03T20:10:04.667Z,26.82
2023-07-03T20:12:33.073Z,26.82
2023-07-03T20:15:01.466Z,26.70
2023-07-03T20:17:31.316Z,26.56
2023-07-03T20:19:59.584Z,26.54
2023-07-03T20:22:27.723Z,26.49
2023-07-03T20:24:57.241Z,26.46
2023-07-03T20:27:25.396Z,26.48
2023-07-03T20:29:53.782Z,26.44
2023-07-03T20:32:21.971Z,26.45
2023-07-03T20:34:51.621Z,26.47
2023-07-03T20:37:19.815Z,26.36
2023-07-03T20:39:48.725Z,26.42
2023-07-03T20:42:18.299Z,26.45
2023-07-03T20:44:47.462Z,26.39
2023-07-03T20:47:15.585Z,26.40
2023-07-03T20:49:43.782Z,26.41
2023-07-03T20:52:15.670Z,26.39
2023-07-03T20:54:55.184Z,26.33
2023-07-03T20:57:24.662Z,26.36
2023-07-03T20:59:52.922Z,26.34
2023-07-03T21:02:21.080Z,26.32
2023-07-03T21:04:49.335Z,26.29
2023-07-03T21:07:18.025Z,26.18
2023-07-03T21:09:46.404Z,26.12
2023-07-03T21:12:15.095Z,26.20
2023-07-03T21:14:44.639Z,26.20
2023-07-03T21:17:12.816Z,26.21
2023-07-03T21:19:41.064Z,26.01
2023-07-03T21:22:09.211Z,25.98
2023-07-03T21:24:37.392Z,26.02
2023-07-03T21:27:06.439Z,26.11
2023-07-03T21:29:34.561Z,26.20
2023-07-03T21:32:04.265Z,26.16
2023-07-03T21:34:32.641Z,26.09
2023-07-03T21:37:00.776Z,26.08
2023-07-03T21:39:29.029Z,26.11
2023-07-03T21:41:57.281Z,26.12
2023-07-03T21:44:25.422Z,26.15
2023-07-03T21:46:56.602Z,25.78
2023-07-03T21:49:26.131Z,25.67
2023-07-03T21:51:55.239Z,25.61
2023-07-03T21:54:23.521Z,25.63
2023-07-03T21:56:51.616Z,25.63
2023-07-03T21:59:19.658Z,25.58
2023-07-03T22:01:51.571Z,25.30
2023-07-03T22:04:19.818Z,25.17
2023-07-03T22:06:49.446Z,25.21
2023-07-03T22:09:28.620Z,25.32
2023-07-03T22:12:07.733Z,25.38
2023-07-03T22:14:36.425Z,25.77
2023-07-03T22:17:04.980Z,25.71
2023-07-03T22:19:33.218Z,25.41
2023-07-03T22:22:02.735Z,25.34
2023-07-03T22:24:30.845Z,25.27
2023-07-03T22:26:58.980Z,25.14
2023-07-03T22:29:27.096Z,25.03
2023-07-03T22:31:55.284Z,25.02
2023-07-03T22:34:23.624Z,24.92
2023-07-03T22:36:51.754Z,24.85
2023-07-03T22:39:21.398Z,24.83
2023-07-03T22:41:49.446Z,24.89
2023-07-03T22:44:17.508Z,24.99
2023-07-03T22:46:45.622Z,25.01
2023-07-03T22:49:24.618Z,25.04
2023-07-03T22:51:54.051Z,25.04
2023-07-03T22:54:23.869Z,25.08
2023-07-03T22:56:52.062Z,25.09
2023-07-03T22:59:20.135Z,25.11
2023-07-03T23:01:49.451Z,25.06
2023-07-03T23:04:18.420Z,25.04
2023-07-03T23:06:48.478Z,25.06
2023-07-03T23:09:17.863Z,25.08
2023-07-03T23:11:47.689Z,25.07
2023-07-03T23:14:16.815Z,25.07
2023-07-03T23:16:46.758Z,25.07
2023-07-03T23:19:17.819Z,25.06
2023-07-03T23:21:50.268Z,25.06
2023-07-03T23:24:18.545Z,25.07
2023-07-03T23:26:48.271Z,25.02
2023-07-03T23:29:16.813Z,25.01
2023-07-03T23:31:45.751Z,25.06
2023-07-03T23:34:14.389Z,25.09
2023-07-03T23:36:42.896Z,25.07
2023-07-03T23:39:11.833Z,25.08
2023-07-03T23:41:40.582Z,24.97
2023-07-03T23:44:10.036Z,24.79
2023-07-03T23:46:38.880Z,24.68
2023-07-03T23:49:08.465Z,24.57
2023-07-03T23:51:36.795Z,24.57
2023-07-03T23:54:06.990Z,24.59
2023-07-03T23:56:35.957Z,24.55
2023-07-03T23:59:04.817Z,24.38
